Terminal Aerodrome Forecast
Issued by NWS Oklahoma City, OK

Home | Current Version | Previous Version | Text Only | Print | Product List | Glossary On
Versions: 1 2 3 4 5 6 7 8 9 10 11 12 13 14
000
FTUS44 KOUN 252331
TAFOUN
TAF
KOUN 252331Z 2600/2624 35006KT P6SM SKC
     FM260600 09005KT P6SM SKC
     FM261500 14011KT P6SM BKN250
     FM262000 17016G24KT P6SM OVC025 PROB30 2621/2624 P6SM TSRA
      BKN025CB=

USA.gov is the U.S. government's official web portal to all federal, state and local government web resources and services.